sensor_id;sensor_type;location;lat;lon;timestamp;pressure;altitude;pressure_sealevel;temperature;humidity
12963;BME280;6546;49.882;8.666;2022-07-10T00:00:34;100602.88;;;18.99;80.39
12963;BME280;6546;49.882;8.666;2022-07-10T00:03:02;100603.47;;;19.12;79.03
12963;BME280;6546;49.882;8.666;2022-07-10T00:05:29;100600.34;;;18.94;78.93
12963;BME280;6546;49.882;8.666;2022-07-10T00:07:56;100603.66;;;19.03;77.79
12963;BME280;6546;49.882;8.666;2022-07-10T00:10:26;100603.75;;;18.98;78.36
12963;BME280;6546;49.882;8.666;2022-07-10T00:12:54;100608.50;;;18.81;78.67
12963;BME280;6546;49.882;8.666;2022-07-10T00:15:21;100593.81;;;18.72;78.70
12963;BME280;6546;49.882;8.666;2022-07-10T00:17:48;100588.25;;;18.87;77.66
12963;BME280;6546;49.882;8.666;2022-07-10T00:20:16;100587.53;;;18.79;77.42
12963;BME280;6546;49.882;8.666;2022-07-10T00:22:43;100597.16;;;18.80;77.11
12963;BME280;6546;49.882;8.666;2022-07-10T00:25:11;100601.44;;;18.83;76.05
12963;BME280;6546;49.882;8.666;2022-07-10T00:27:42;100599.06;;;18.69;76.50
12963;BME280;6546;49.882;8.666;2022-07-10T00:30:11;100595.59;;;18.70;75.92
12963;BME280;6546;49.882;8.666;2022-07-10T00:32:39;100601.53;;;18.78;75.17
12963;BME280;6546;49.882;8.666;2022-07-10T00:35:07;100600.53;;;18.85;75.12
12963;BME280;6546;49.882;8.666;2022-07-10T00:37:34;100588.44;;;18.78;76.06
12963;BME280;6546;49.882;8.666;2022-07-10T00:40:03;100603.19;;;18.84;75.30
12963;BME280;6546;49.882;8.666;2022-07-10T00:42:32;100608.44;;;18.84;75.29
12963;BME280;6546;49.882;8.666;2022-07-10T00:45:01;100605.88;;;18.81;74.22
12963;BME280;6546;49.882;8.666;2022-07-10T00:47:28;100607.81;;;18.71;74.67
12963;BME280;6546;49.882;8.666;2022-07-10T00:49:55;100598.41;;;18.58;75.19
12963;BME280;6546;49.882;8.666;2022-07-10T00:52:23;100592.97;;;18.70;75.06
12963;BME280;6546;49.882;8.666;2022-07-10T00:54:52;100599.22;;;18.63;75.00
12963;BME280;6546;49.882;8.666;2022-07-10T00:57:21;100603.53;;;18.64;74.45
12963;BME280;6546;49.882;8.666;2022-07-10T00:59:50;100606.34;;;18.55;74.74
12963;BME280;6546;49.882;8.666;2022-07-10T01:02:19;100607.22;;;18.55;74.04
12963;BME280;6546;49.882;8.666;2022-07-10T01:04:46;100609.97;;;18.48;74.31
12963;BME280;6546;49.882;8.666;2022-07-10T01:07:14;100612.66;;;18.43;73.96
12963;BME280;6546;49.882;8.666;2022-07-10T01:09:41;100613.16;;;18.63;73.97
12963;BME280;6546;49.882;8.666;2022-07-10T01:12:08;100611.59;;;18.55;73.59
12963;BME280;6546;49.882;8.666;2022-07-10T01:14:37;100616.97;;;18.45;72.99
12963;BME280;6546;49.882;8.666;2022-07-10T01:17:06;100615.06;;;18.54;74.15
12963;BME280;6546;49.882;8.666;2022-07-10T01:19:35;100623.75;;;18.57;73.23
12963;BME280;6546;49.882;8.666;2022-07-10T01:22:04;100614.78;;;18.23;74.63
12963;BME280;6546;49.882;8.666;2022-07-10T01:24:31;100614.16;;;18.07;75.17
12963;BME280;6546;49.882;8.666;2022-07-10T01:26:58;100609.00;;;18.04;75.15
12963;BME280;6546;49.882;8.666;2022-07-10T01:29:25;100609.75;;;18.10;75.27
12963;BME280;6546;49.882;8.666;2022-07-10T01:31:54;100611.66;;;18.01;75.02
12963;BME280;6546;49.882;8.666;2022-07-10T01:34:25;100609.28;;;17.85;76.22
12963;BME280;6546;49.882;8.666;2022-07-10T01:36:52;100606.00;;;17.74;76.71
12963;BME280;6546;49.882;8.666;2022-07-10T01:39:21;100610.28;;;17.77;76.63
12963;BME280;6546;49.882;8.666;2022-07-10T01:41:48;100617.16;;;17.82;76.80
12963;BME280;6546;49.882;8.666;2022-07-10T01:44:15;100611.91;;;17.85;76.51
12963;BME280;6546;49.882;8.666;2022-07-10T01:46:43;100613.63;;;17.88;76.51
12963;BME280;6546;49.882;8.666;2022-07-10T01:49:11;100619.47;;;18.04;76.55
12963;BME280;6546;49.882;8.666;2022-07-10T01:51:38;100621.44;;;17.89;76.48
12963;BME280;6546;49.882;8.666;2022-07-10T01:54:08;100620.50;;;17.93;76.08
12963;BME280;6546;49.882;8.666;2022-07-10T01:56:36;100628.53;;;17.81;77.02
12963;BME280;6546;49.882;8.666;2022-07-10T01:59:03;100622.53;;;17.76;77.42
12963;BME280;6546;49.882;8.666;2022-07-10T02:01:30;100621.72;;;17.68;78.16
12963;BME280;6546;49.882;8.666;2022-07-10T02:03:57;100628.66;;;17.72;78.74
12963;BME280;6546;49.882;8.666;2022-07-10T02:06:41;100626.94;;;17.74;79.02
12963;BME280;6546;49.882;8.666;2022-07-10T02:09:09;100625.13;;;17.76;78.55
12963;BME280;6546;49.882;8.666;2022-07-10T02:11:38;100626.84;;;17.77;78.34
12963;BME280;6546;49.882;8.666;2022-07-10T02:14:05;100621.63;;;17.77;78.40
12963;BME280;6546;49.882;8.666;2022-07-10T02:16:33;100619.00;;;17.77;78.37
12963;BME280;6546;49.882;8.666;2022-07-10T02:19:01;100616.47;;;17.74;77.83
12963;BME280;6546;49.882;8.666;2022-07-10T02:21:28;100622.34;;;17.88;77.04
12963;BME280;6546;49.882;8.666;2022-07-10T02:23:55;100628.38;;;17.90;76.48
12963;BME280;6546;49.882;8.666;2022-07-10T02:26:22;100620.31;;;18.06;75.76
12963;BME280;6546;49.882;8.666;2022-07-10T02:28:59;100622.41;;;17.84;76.10
12963;BME280;6546;49.882;8.666;2022-07-10T02:31:26;100621.78;;;17.65;76.62
12963;BME280;6546;49.882;8.666;2022-07-10T02:33:53;100619.22;;;17.62;77.31
12963;BME280;6546;49.882;8.666;2022-07-10T02:36:20;100627.19;;;17.53;77.71
12963;BME280;6546;49.882;8.666;2022-07-10T02:38:47;100626.06;;;17.69;78.43
12963;BME280;6546;49.882;8.666;2022-07-10T02:41:15;100624.50;;;17.59;77.24
12963;BME280;6546;49.882;8.666;2022-07-10T02:43:42;100627.19;;;17.53;77.54
12963;BME280;6546;49.882;8.666;2022-07-10T02:46:11;100622.84;;;17.53;77.98
12963;BME280;6546;49.882;8.666;2022-07-10T02:48:38;100623.59;;;17.60;77.97
12963;BME280;6546;49.882;8.666;2022-07-10T02:51:08;100619.31;;;17.54;77.85
12963;BME280;6546;49.882;8.666;2022-07-10T02:53:35;100624.63;;;17.50;76.99
12963;BME280;6546;49.882;8.666;2022-07-10T02:56:03;100628.25;;;17.39;77.60
12963;BME280;6546;49.882;8.666;2022-07-10T02:58:30;100633.38;;;17.47;77.38
12963;BME280;6546;49.882;8.666;2022-07-10T03:00:58;100634.78;;;17.71;76.69
12963;BME280;6546;49.882;8.666;2022-07-10T03:03:26;100630.38;;;17.76;76.01
12963;BME280;6546;49.882;8.666;2022-07-10T03:05:54;100638.03;;;17.88;75.24
12963;BME280;6546;49.882;8.666;2022-07-10T03:08:21;100638.03;;;17.88;75.28
12963;BME280;6546;49.882;8.666;2022-07-10T03:10:48;100633.59;;;17.93;74.83
12963;BME280;6546;49.882;8.666;2022-07-10T03:13:15;100626.81;;;17.80;75.61
12963;BME280;6546;49.882;8.666;2022-07-10T03:15:42;100632.25;;;17.65;76.42
12963;BME280;6546;49.882;8.666;2022-07-10T03:18:09;100627.06;;;17.62;75.98
12963;BME280;6546;49.882;8.666;2022-07-10T03:20:38;100637.47;;;17.65;76.06
12963;BME280;6546;49.882;8.666;2022-07-10T03:23:05;100633.09;;;17.65;75.84
12963;BME280;6546;49.882;8.666;2022-07-10T03:25:32;100640.06;;;17.68;76.11
12963;BME280;6546;49.882;8.666;2022-07-10T03:27:59;100635.69;;;17.70;76.17
12963;BME280;6546;49.882;8.666;2022-07-10T03:30:27;100637.56;;;17.59;77.14
12963;BME280;6546;49.882;8.666;2022-07-10T03:32:54;100630.69;;;17.52;76.70
12963;BME280;6546;49.882;8.666;2022-07-10T03:35:21;100636.16;;;17.35;77.85
12963;BME280;6546;49.882;8.666;2022-07-10T03:37:50;100632.00;;;17.18;78.66
12963;BME280;6546;49.882;8.666;2022-07-10T03:40:18;100644.25;;;17.15;78.48
12963;BME280;6546;49.882;8.666;2022-07-10T03:42:45;100644.31;;;17.12;78.23
12963;BME280;6546;49.882;8.666;2022-07-10T03:45:13;100641.56;;;17.21;77.14
12963;BME280;6546;49.882;8.666;2022-07-10T03:47:39;100637.94;;;17.31;77.66
12963;BME280;6546;49.882;8.666;2022-07-10T03:50:07;100652.00;;;17.24;76.93
12963;BME280;6546;49.882;8.666;2022-07-10T03:52:35;100649.47;;;17.16;76.08
12963;BME280;6546;49.882;8.666;2022-07-10T03:55:05;100646.84;;;17.18;76.23
12963;BME280;6546;49.882;8.666;2022-07-10T03:57:32;100648.63;;;17.16;76.39
12963;BME280;6546;49.882;8.666;2022-07-10T04:00:16;100648.50;;;17.25;75.91
12963;BME280;6546;49.882;8.666;2022-07-10T04:02:44;100655.31;;;17.35;76.20
12963;BME280;6546;49.882;8.666;2022-07-10T04:05:11;100651.97;;;17.26;74.84
12963;BME280;6546;49.882;8.666;2022-07-10T04:07:38;100653.84;;;17.16;75.80
12963;BME280;6546;49.882;8.666;2022-07-10T04:10:09;100644.94;;;17.32;74.89
12963;BME280;6546;49.882;8.666;2022-07-10T04:12:36;100649.38;;;17.23;75.12
12963;BME280;6546;49.882;8.666;2022-07-10T04:15:04;100653.59;;;17.34;75.22
12963;BME280;6546;49.882;8.666;2022-07-10T04:17:32;100647.69;;;17.20;75.54
12963;BME280;6546;49.882;8.666;2022-07-10T04:19:59;100643.31;;;17.19;76.05
12963;BME280;6546;49.882;8.666;2022-07-10T04:22:26;100646.03;;;17.13;75.30
12963;BME280;6546;49.882;8.666;2022-07-10T04:24:58;100647.81;;;17.11;75.63
12963;BME280;6546;49.882;8.666;2022-07-10T04:27:27;100664.34;;;17.13;75.52
12963;BME280;6546;49.882;8.666;2022-07-10T04:29:54;100657.44;;;17.06;74.93
12963;BME280;6546;49.882;8.666;2022-07-10T04:32:21;100651.38;;;17.04;75.73
12963;BME280;6546;49.882;8.666;2022-07-10T04:34:48;100655.53;;;17.20;75.07
12963;BME280;6546;49.882;8.666;2022-07-10T04:37:16;100667.03;;;17.07;75.13
12963;BME280;6546;49.882;8.666;2022-07-10T04:39:43;100661.03;;;16.97;75.17
12963;BME280;6546;49.882;8.666;2022-07-10T04:42:10;100667.28;;;16.84;75.63
12963;BME280;6546;49.882;8.666;2022-07-10T04:44:39;100667.13;;;16.98;74.99
12963;BME280;6546;49.882;8.666;2022-07-10T04:47:07;100668.13;;;16.87;75.13
12963;BME280;6546;49.882;8.666;2022-07-10T04:49:37;100665.34;;;17.03;74.65
12963;BME280;6546;49.882;8.666;2022-07-10T04:52:05;100673.19;;;17.03;74.81
12963;BME280;6546;49.882;8.666;2022-07-10T04:54:32;100674.03;;;17.02;74.85
12963;BME280;6546;49.882;8.666;2022-07-10T04:57:01;100679.00;;;17.23;74.03
12963;BME280;6546;49.882;8.666;2022-07-10T04:59:28;100678.19;;;17.21;73.04
12963;BME280;6546;49.882;8.666;2022-07-10T05:01:58;100682.59;;;17.16;73.12
12963;BME280;6546;49.882;8.666;2022-07-10T05:04:25;100685.13;;;17.22;72.22
12963;BME280;6546;49.882;8.666;2022-07-10T05:06:52;100693.94;;;17.15;72.58
12963;BME280;6546;49.882;8.666;2022-07-10T05:09:19;100695.84;;;17.01;73.45
12963;BME280;6546;49.882;8.666;2022-07-10T05:11:46;100699.31;;;17.03;73.46
12963;BME280;6546;49.882;8.666;2022-07-10T05:14:14;100701.09;;;16.98;72.88
12963;BME280;6546;49.882;8.666;2022-07-10T05:16:41;100704.56;;;17.00;72.68
12963;BME280;6546;49.882;8.666;2022-07-10T05:19:10;100701.09;;;16.98;72.73
12963;BME280;6546;49.882;8.666;2022-07-10T05:21:37;100697.63;;;16.97;72.28
12963;BME280;6546;49.882;8.666;2022-07-10T05:24:05;100695.88;;;16.99;72.63
12963;BME280;6546;49.882;8.666;2022-07-10T05:26:32;100703.13;;;16.69;72.45
12963;BME280;6546;49.882;8.666;2022-07-10T05:29:01;100703.84;;;16.87;71.65
12963;BME280;6546;49.882;8.666;2022-07-10T05:31:28;100701.19;;;16.91;72.53
12963;BME280;6546;49.882;8.666;2022-07-10T05:33:58;100701.88;;;17.07;70.75
12963;BME280;6546;49.882;8.666;2022-07-10T05:36:27;100704.44;;;17.12;70.78
12963;BME280;6546;49.882;8.666;2022-07-10T05:38:54;100701.09;;;16.99;69.76
12963;BME280;6546;49.882;8.666;2022-07-10T05:41:21;100704.50;;;17.06;69.77
12963;BME280;6546;49.882;8.666;2022-07-10T05:43:48;100702.72;;;17.09;69.20
12963;BME280;6546;49.882;8.666;2022-07-10T05:46:16;100705.13;;;17.26;68.28
12963;BME280;6546;49.882;8.666;2022-07-10T05:48:43;100705.88;;;17.37;68.10
12963;BME280;6546;49.882;8.666;2022-07-10T05:51:10;100714.44;;;17.49;67.80
12963;BME280;6546;49.882;8.666;2022-07-10T05:53:39;100711.66;;;17.61;67.02
12963;BME280;6546;49.882;8.666;2022-07-10T05:56:07;100724.59;;;17.76;66.96
12963;BME280;6546;49.882;8.666;2022-07-10T05:58:35;100727.25;;;17.75;67.06
12963;BME280;6546;49.882;8.666;2022-07-10T06:01:03;100727.19;;;17.79;67.06
12963;BME280;6546;49.882;8.666;2022-07-10T06:03:31;100730.72;;;17.72;66.38
12963;BME280;6546;49.882;8.666;2022-07-10T06:05:58;100725.69;;;17.57;65.86
12963;BME280;6546;49.882;8.666;2022-07-10T06:08:26;100727.44;;;17.58;65.32
12963;BME280;6546;49.882;8.666;2022-07-10T06:10:56;100724.81;;;17.58;65.29
12963;BME280;6546;49.882;8.666;2022-07-10T06:13:23;100722.69;;;17.15;66.27
12963;BME280;6546;49.882;8.666;2022-07-10T06:15:50;100730.56;;;17.13;65.06
12963;BME280;6546;49.882;8.666;2022-07-10T06:18:18;100720.88;;;17.21;65.62
12963;BME280;6546;49.882;8.666;2022-07-10T06:20:45;100718.22;;;17.28;63.46
12963;BME280;6546;49.882;8.666;2022-07-10T06:23:12;100726.88;;;17.31;64.83
12963;BME280;6546;49.882;8.666;2022-07-10T06:25:39;100724.78;;;17.59;64.38
12963;BME280;6546;49.882;8.666;2022-07-10T06:28:08;100721.63;;;17.31;62.86
12963;BME280;6546;49.882;8.666;2022-07-10T06:30:35;100722.47;;;17.35;63.06
12963;BME280;6546;49.882;8.666;2022-07-10T06:33:02;100722.03;;;17.70;61.85
12963;BME280;6546;49.882;8.666;2022-07-10T06:35:29;100726.38;;;17.74;61.92
12963;BME280;6546;49.882;8.666;2022-07-10T06:37:56;100724.69;;;17.67;61.09
12963;BME280;6546;49.882;8.666;2022-07-10T06:40:23;100720.72;;;18.03;62.94
12963;BME280;6546;49.882;8.666;2022-07-10T06:42:51;100719.84;;;18.03;59.14
12963;BME280;6546;49.882;8.666;2022-07-10T06:45:20;100720.78;;;17.99;60.99
12963;BME280;6546;49.882;8.666;2022-07-10T06:47:47;100715.28;;;18.17;58.77
12963;BME280;6546;49.882;8.666;2022-07-10T06:50:24;100712.56;;;18.25;56.99
12963;BME280;6546;49.882;8.666;2022-07-10T06:52:51;100711.19;;;18.55;55.39
12963;BME280;6546;49.882;8.666;2022-07-10T06:55:19;100714.91;;;18.41;55.67
12963;BME280;6546;49.882;8.666;2022-07-10T06:57:46;100717.34;;;17.97;54.86
12963;BME280;6546;49.882;8.666;2022-07-10T07:00:13;100720.06;;;17.89;56.33
12963;BME280;6546;49.882;8.666;2022-07-10T07:02:42;100712.31;;;17.81;56.14
12963;BME280;6546;49.882;8.666;2022-07-10T07:05:09;100722.97;;;17.66;52.79
12963;BME280;6546;49.882;8.666;2022-07-10T07:07:36;100724.84;;;17.55;54.04
12963;BME280;6546;49.882;8.666;2022-07-10T07:10:05;100726.53;;;17.59;54.02
12963;BME280;6546;49.882;8.666;2022-07-10T07:12:33;100725.75;;;17.52;53.95
12963;BME280;6546;49.882;8.666;2022-07-10T07:15:00;100721.97;;;17.76;53.91
12963;BME280;6546;49.882;8.666;2022-07-10T07:17:27;100721.81;;;17.88;52.73
12963;BME280;6546;49.882;8.666;2022-07-10T07:20:02;100720.78;;;18.00;52.36
12963;BME280;6546;49.882;8.666;2022-07-10T07:22:46;100710.09;;;18.14;55.17
12963;BME280;6546;49.882;8.666;2022-07-10T07:25:33;100713.84;;;17.94;51.02
12963;BME280;6546;49.882;8.666;2022-07-10T07:28:00;100707.31;;;17.63;52.25
12963;BME280;6546;49.882;8.666;2022-07-10T07:30:27;100704.69;;;17.63;52.35
12963;BME280;6546;49.882;8.666;2022-07-10T07:32:55;100708.53;;;18.01;52.62
12963;BME280;6546;49.882;8.666;2022-07-10T07:35:23;100716.22;;;18.13;50.40
12963;BME280;6546;49.882;8.666;2022-07-10T07:37:51;100718.53;;;17.74;51.07
12963;BME280;6546;49.882;8.666;2022-07-10T07:40:19;100729.56;;;17.94;51.30
12963;BME280;6546;49.882;8.666;2022-07-10T07:42:48;100723.34;;;18.02;50.57
12963;BME280;6546;49.882;8.666;2022-07-10T07:45:15;100718.84;;;18.13;50.36
12963;BME280;6546;49.882;8.666;2022-07-10T07:47:44;100723.34;;;18.02;49.85
12963;BME280;6546;49.882;8.666;2022-07-10T07:50:11;100723.22;;;18.12;49.50
12963;BME280;6546;49.882;8.666;2022-07-10T07:52:40;100719.91;;;18.00;49.53
12963;BME280;6546;49.882;8.666;2022-07-10T07:55:08;100720.38;;;17.63;49.15
12963;BME280;6546;49.882;8.666;2022-07-10T07:57:35;100723.91;;;17.62;49.13
12963;BME280;6546;49.882;8.666;2022-07-10T08:00:04;100717.50;;;17.84;49.12
12963;BME280;6546;49.882;8.666;2022-07-10T08:02:32;100709.38;;;18.04;48.41
12963;BME280;6546;49.882;8.666;2022-07-10T08:05:00;100711.63;;;18.27;48.31
12963;BME280;6546;49.882;8.666;2022-07-10T08:07:33;100721.47;;;18.13;47.07
12963;BME280;6546;49.882;8.666;2022-07-10T08:10:03;100721.84;;;17.85;47.76
12963;BME280;6546;49.882;8.666;2022-07-10T08:12:30;100721.09;;;17.77;48.37
12963;BME280;6546;49.882;8.666;2022-07-10T08:14:57;100715.97;;;17.65;48.79
12963;BME280;6546;49.882;8.666;2022-07-10T08:17:24;100723.56;;;17.88;48.52
12963;BME280;6546;49.882;8.666;2022-07-10T08:19:52;100726.97;;;17.93;47.02
12963;BME280;6546;49.882;8.666;2022-07-10T08:22:19;100713.59;;;18.11;46.95
12963;BME280;6546;49.882;8.666;2022-07-10T08:24:46;100711.94;;;18.06;47.02
12963;BME280;6546;49.882;8.666;2022-07-10T08:27:15;100709.09;;;18.21;48.04
12963;BME280;6546;49.882;8.666;2022-07-10T08:29:42;100721.28;;;18.25;47.03
12963;BME280;6546;49.882;8.666;2022-07-10T08:32:09;100703.03;;;18.17;47.25
12963;BME280;6546;49.882;8.666;2022-07-10T08:34:36;100709.59;;;18.44;46.63
12963;BME280;6546;49.882;8.666;2022-07-10T08:37:04;100703.41;;;18.50;46.39
12963;BME280;6546;49.882;8.666;2022-07-10T08:39:31;100707.75;;;18.50;46.57
12963;BME280;6546;49.882;8.666;2022-07-10T08:41:58;100702.56;;;18.47;45.95
12963;BME280;6546;49.882;8.666;2022-07-10T08:44:28;100711.31;;;18.45;46.71
12963;BME280;6546;49.882;8.666;2022-07-10T08:46:56;100701.81;;;18.40;46.93
12963;BME280;6546;49.882;8.666;2022-07-10T08:49:26;100710.19;;;18.60;46.42
12963;BME280;6546;49.882;8.666;2022-07-10T08:51:58;100708.38;;;18.64;46.82
12963;BME280;6546;49.882;8.666;2022-07-10T08:54:29;100714.03;;;18.39;47.31
12963;BME280;6546;49.882;8.666;2022-07-10T08:56:57;100714.16;;;18.33;47.73
12963;BME280;6546;49.882;8.666;2022-07-10T08:59:24;100711.53;;;18.32;47.84
12963;BME280;6546;49.882;8.666;2022-07-10T09:01:53;100711.03;;;18.10;48.69
12963;BME280;6546;49.882;8.666;2022-07-10T09:04:22;100719.44;;;18.30;48.81
12963;BME280;6546;49.882;8.666;2022-07-10T09:07:02;100723.75;;;18.34;48.04
12963;BME280;6546;49.882;8.666;2022-07-10T09:09:29;100715.28;;;18.17;47.64
12963;BME280;6546;49.882;8.666;2022-07-10T09:11:57;100724.91;;;18.16;48.02
12963;BME280;6546;49.882;8.666;2022-07-10T09:14:25;100718.25;;;17.92;48.01
12963;BME280;6546;49.882;8.666;2022-07-10T09:16:54;100724.19;;;18.05;47.68
12963;BME280;6546;49.882;8.666;2022-07-10T09:19:23;100720.59;;;18.11;47.64
12963;BME280;6546;49.882;8.666;2022-07-10T09:21:54;100705.75;;;18.13;47.97
12963;BME280;6546;49.882;8.666;2022-07-10T09:24:22;100705.50;;;18.27;48.72
12963;BME280;6546;49.882;8.666;2022-07-10T09:26:58;100721.31;;;18.22;47.57
12963;BME280;6546;49.882;8.666;2022-07-10T09:29:29;100704.72;;;18.20;48.46
12963;BME280;6546;49.882;8.666;2022-07-10T09:31:59;100712.31;;;18.37;47.75
12963;BME280;6546;49.882;8.666;2022-07-10T09:34:35;100720.44;;;18.20;47.54
12963;BME280;6546;49.882;8.666;2022-07-10T09:37:17;100708.25;;;18.20;48.03
12963;BME280;6546;49.882;8.666;2022-07-10T09:39:56;100705.00;;;18.05;48.68
12963;BME280;6546;49.882;8.666;2022-07-10T09:42:36;100717.22;;;18.03;48.43
12963;BME280;6546;49.882;8.666;2022-07-10T09:45:21;100713.00;;;17.94;49.00
12963;BME280;6546;49.882;8.666;2022-07-10T09:47:58;100709.16;;;18.18;49.06
12963;BME280;6546;49.882;8.666;2022-07-10T09:50:29;100704.53;;;18.34;49.21
12963;BME280;6546;49.882;8.666;2022-07-10T09:52:58;100703.19;;;18.61;47.74
12963;BME280;6546;49.882;8.666;2022-07-10T09:55:27;100694.16;;;18.79;48.01
12963;BME280;6546;49.882;8.666;2022-07-10T09:57:57;100704.69;;;18.77;47.41
12963;BME280;6546;49.882;8.666;2022-07-10T10:00:28;100701.94;;;18.85;47.54
12963;BME280;6546;49.882;8.666;2022-07-10T10:02:58;100701.78;;;18.91;47.37
12963;BME280;6546;49.882;8.666;2022-07-10T10:05:33;100701.78;;;18.91;46.86
12963;BME280;6546;49.882;8.666;2022-07-10T10:08:09;100700.25;;;18.81;47.55
12963;BME280;6546;49.882;8.666;2022-07-10T10:10:44;100690.59;;;18.83;47.67
12963;BME280;6546;49.882;8.666;2022-07-10T10:13:15;100694.88;;;18.88;47.86
12963;BME280;6546;49.882;8.666;2022-07-10T10:15:42;100696.41;;;18.99;48.15
12963;BME280;6546;49.882;8.666;2022-07-10T10:18:17;100698.81;;;19.11;47.10
12963;BME280;6546;49.882;8.666;2022-07-10T10:20:45;100695.66;;;18.93;46.93
12963;BME280;6546;49.882;8.666;2022-07-10T10:23:13;100692.72;;;18.61;47.41
12963;BME280;6546;49.882;8.666;2022-07-10T10:25:41;100690.72;;;18.77;47.52
12963;BME280;6546;49.882;8.666;2022-07-10T10:28:09;100686.28;;;18.80;48.07
12963;BME280;6546;49.882;8.666;2022-07-10T10:30:38;100687.78;;;18.93;48.18
12963;BME280;6546;49.882;8.666;2022-07-10T10:33:44;100683.25;;;19.00;47.49
12963;BME280;6546;49.882;8.666;2022-07-10T10:36:15;100674.44;;;19.04;48.05
12963;BME280;6546;49.882;8.666;2022-07-10T10:39:03;100675.38;;;19.02;48.15
12963;BME280;6546;49.882;8.666;2022-07-10T10:41:37;100671.38;;;19.27;46.92
12963;BME280;6546;49.882;8.666;2022-07-10T10:44:26;100676.25;;;19.44;47.06
12963;BME280;6546;49.882;8.666;2022-07-10T10:47:04;100658.25;;;19.69;45.38
12963;BME280;6546;49.882;8.666;2022-07-10T10:52:27;100647.16;;;20.29;44.22
12963;BME280;6546;49.882;8.666;2022-07-10T10:55:02;100645.94;;;20.42;45.07
12963;BME280;6546;49.882;8.666;2022-07-10T10:57:41;100639.44;;;20.23;44.69
12963;BME280;6546;49.882;8.666;2022-07-10T11:00:34;100632.44;;;20.22;44.91
12963;BME280;6546;49.882;8.666;2022-07-10T11:03:14;100651.34;;;20.36;44.89
12963;BME280;6546;49.882;8.666;2022-07-10T11:05:45;100655.34;;;19.81;45.08
12963;BME280;6546;49.882;8.666;2022-07-10T11:08:13;100661.91;;;19.59;45.69
12963;BME280;6546;49.882;8.666;2022-07-10T11:10:42;100662.00;;;19.56;46.86
12963;BME280;6546;49.882;8.666;2022-07-10T11:13:11;100657.34;;;19.70;46.46
12963;BME280;6546;49.882;8.666;2022-07-10T11:15:39;100655.16;;;19.89;46.53
12963;BME280;6546;49.882;8.666;2022-07-10T11:18:08;100651.19;;;20.08;47.71
12963;BME280;6546;49.882;8.666;2022-07-10T11:20:38;100643.31;;;19.71;46.09
12963;BME280;6546;49.882;8.666;2022-07-10T11:26:03;100645.88;;;19.74;47.26
12963;BME280;6546;49.882;8.666;2022-07-10T11:28:55;100652.44;;;19.53;47.53
12963;BME280;6546;49.882;8.666;2022-07-10T11:31:23;100648.09;;;19.51;47.36
12963;BME280;6546;49.882;8.666;2022-07-10T11:33:53;100654.94;;;19.58;47.26
12963;BME280;6546;49.882;8.666;2022-07-10T11:36:23;100644.09;;;19.75;47.86
12963;BME280;6546;49.882;8.666;2022-07-10T11:38:58;100646.50;;;19.84;46.99
12963;BME280;6546;49.882;8.666;2022-07-10T11:41:26;100639.66;;;19.78;47.33
12963;BME280;6546;49.882;8.666;2022-07-10T11:43:55;100635.44;;;19.71;47.50
12963;BME280;6546;49.882;8.666;2022-07-10T11:46:23;100632.06;;;19.66;48.13
12963;BME280;6546;49.882;8.666;2022-07-10T11:48:52;100637.47;;;19.96;48.72
12963;BME280;6546;49.882;8.666;2022-07-10T11:51:24;100629.13;;;20.14;49.25
12963;BME280;6546;49.882;8.666;2022-07-10T11:54:00;100631.13;;;20.38;46.93
12963;BME280;6546;49.882;8.666;2022-07-10T11:56:29;100626.00;;;20.35;46.07
12963;BME280;6546;49.882;8.666;2022-07-10T11:59:01;100620.75;;;20.34;46.19
12963;BME280;6546;49.882;8.666;2022-07-10T12:01:29;100620.19;;;20.57;46.34
12963;BME280;6546;49.882;8.666;2022-07-10T12:04:00;100614.25;;;20.47;46.20
12963;BME280;6546;49.882;8.666;2022-07-10T12:06:28;100623.94;;;20.48;46.45
12963;BME280;6546;49.882;8.666;2022-07-10T12:08:56;100612.84;;;20.68;45.97
12963;BME280;6546;49.882;8.666;2022-07-10T12:11:35;100619.09;;;20.64;45.58
12963;BME280;6546;49.882;8.666;2022-07-10T12:14:11;100605.41;;;20.53;44.77
12963;BME280;6546;49.882;8.666;2022-07-10T12:16:40;100609.09;;;20.77;46.03
12963;BME280;6546;49.882;8.666;2022-07-10T12:19:12;100621.41;;;20.76;45.11
12963;BME280;6546;49.882;8.666;2022-07-10T12:21:41;100615.63;;;20.29;45.51
12963;BME280;6546;49.882;8.666;2022-07-10T12:24:09;100621.00;;;20.25;45.67
12963;BME280;6546;49.882;8.666;2022-07-10T12:26:38;100615.91;;;20.18;46.04
12963;BME280;6546;49.882;8.666;2022-07-10T12:29:11;100613.22;;;20.20;46.19
12963;BME280;6546;49.882;8.666;2022-07-10T12:31:38;100609.75;;;20.19;45.87
12963;BME280;6546;49.882;8.666;2022-07-10T12:34:05;100607.97;;;20.20;46.93
12963;BME280;6546;49.882;8.666;2022-07-10T12:36:47;100612.38;;;20.18;46.00
12963;BME280;6546;49.882;8.666;2022-07-10T12:39:16;100613.31;;;20.17;46.59
12963;BME280;6546;49.882;8.666;2022-07-10T12:41:56;100606.09;;;20.25;46.45
12963;BME280;6546;49.882;8.666;2022-07-10T12:44:37;100608.34;;;20.39;47.26
12963;BME280;6546;49.882;8.666;2022-07-10T12:47:06;100609.88;;;20.48;47.46
12963;BME280;6546;49.882;8.666;2022-07-10T12:49:49;100614.09;;;20.55;48.39
12963;BME280;6546;49.882;8.666;2022-07-10T12:52:24;100611.53;;;20.52;46.41
12963;BME280;6546;49.882;8.666;2022-07-10T12:55:10;100611.75;;;20.42;45.78
12963;BME280;6546;49.882;8.666;2022-07-10T12:57:48;100619.09;;;20.31;46.72
12963;BME280;6546;49.882;8.666;2022-07-10T13:00:16;100607.59;;;20.35;46.27
12963;BME280;6546;49.882;8.666;2022-07-10T13:02:44;100608.22;;;20.43;46.74
12963;BME280;6546;49.882;8.666;2022-07-10T13:05:25;100605.50;;;20.47;46.35
12963;BME280;6546;49.882;8.666;2022-07-10T13:07:53;100607.34;;;20.44;46.81
12963;BME280;6546;49.882;8.666;2022-07-10T13:10:31;100600.81;;;20.59;47.81
12963;BME280;6546;49.882;8.666;2022-07-10T13:12:59;100601.28;;;20.75;48.37
12963;BME280;6546;49.882;8.666;2022-07-10T13:15:27;100595.72;;;20.86;49.33
12963;BME280;6546;49.882;8.666;2022-07-10T13:17:55;100593.66;;;20.96;48.47